AirNav   Everest Fuels
 
 863 users online  

11IN JR's Airport
Danville, Indiana, USA

GOING TO DANVILLE?


FAA INFORMATION EFFECTIVE 23 MARCH 2023

Location

FAA Identifier: 11IN
Lat/Long: 39-49-08.1620N 086-32-17.0000W
39-49.136033N 086-32.283333W
39.8189339,-86.5380556
(estimated)
Elevation: 950 ft. / 290 m (estimated)
Variation: 02W (1985)
From city: 3 miles N of DANVILLE, IN
Time zone: UTC -4 (UTC -5 during Standard Time)
Zip code: 46122

Airport Operations

Airport use: Private use. Permission required prior to landing
Activation date: 11/1978
Control tower: no
ARTCC: INDIANAPOLIS CENTER
FSS: TERRE HAUTE FLIGHT SERVICE STATION
Attendance: UNATNDD
Wind indicator: yes
Segmented circle: no

Airport Communications

WX AWOS-3P at 2R2 (5 nm SE): 118.025 (317-718-4872)
WX ASOS at EYE (11 nm E): 121.575 (317-329-1754)
WX ASOS at IND (13 nm SE): PHONE 317-241-0348
WX AWOS-3PT at GPC (17 nm SW): 118.125 (765-653-1789)
WX AWOS-3 at 8A4 (18 nm E): 135.525 (317-955-3160)
WX AWOS-3PT at TYQ (18 nm NE): 120.725 (317-769-3154)
WX AWOS-3PT at CFJ (20 nm NW): 125.650 (765-362-2967)

Nearby radio navigation aids

VOR radial/distance  VOR name  Freq  Var
VHPr271/7.9BRICKYARD VORTAC116.3001E
SHBr288/34.8SHELBYVILLE VOR/DME116.1501E
TTHr057/38.3TERRE HAUTE VORTAC115.3002E

 
NDB name  Hdg/Dist  Freq  Var  ID
CRAWFORDSVILLE123/19.938804WCFJ -.-. ..-. .---
METROPOLITAN255/23.633803WUMP ..- -- .--.

Airport Services

Airframe service: NONE
Powerplant service: NONE

Runway Information

Runway E/W

Dimensions: 2700 x 90 ft. / 823 x 27 m
Surface: gravel
RUNWAY E  RUNWAY W
Traffic pattern: leftleft
Obstructions: none3 ft. fence

Airport Ownership and Management from official FAA records

Ownership: Privately-owned
Owner: DOREL GRAVES
4039 NORTH STATE RD 39
DANVILLE, IN 46122
Manager: DOREL GRAVES
4039 NORTH STATE RD 39
DANVILLE, IN 46122

Airport Operational Statistics

Aircraft based on the field: 3
Single engine airplanes: 2
Multi engine airplanes: 1
    

Additional Remarks

FOR CD CTC INDIANAPOLIS APCH AT 317-227-5743.

Instrument Procedures

There are no published instrument procedures at 11IN.

Some nearby airports with instrument procedures:

2R2 - Hendricks County Airport-Gordon Graham Field (5 nm SE)
KEYE - Eagle Creek Airpark (11 nm E)
KIND - Indianapolis International Airport (13 nm SE)
KGPC - Putnam County Regional Airport (17 nm SW)
8A4 - Indianapolis Downtown Heliport (18 nm E)
KTYQ - Indianapolis Executive Airport (18 nm NE)
KCFJ - Crawfordsville Regional Airport (20 nm NW)
 
Loc | Ops | Rwys | IFR | FBO | Links
Com | Nav | Svcs | Stats | Notes
Area around 11IN (JR's Airport)
 
Road maps at: MapQuest Bing Google
 
Aerial photo
No photo
 
Sectional chart

 
Airport distance calculator
Flying to JR's Airport? Find the distance to fly.

From to 11IN

Sunrise and sunset
Times for 28-Mar-2023
 Local
(UTC-4)
 Zulu
(UTC)
Morning civil twilight07:1111:11
Sunrise07:3811:38
Sunset20:0500:05
Evening civil twilight20:3200:32

Current date and time
Zulu (UTC)  29-Mar-2023 02:59:47
Local (UTC-4)  28-Mar-2023 22:59:47
 
METAR
KEYE 
11nm E 
290253Z AUTO 00000KT 10SM CLR 04/M02 A3026 RMK AO2 SLP252 T00391017 53001
KIND 
13nm SE 
290254Z 23004KT 10SM CLR 04/M03 A3026 RMK AO2 SLP253 T00391033 53001
KGPC 
17nm SW 
290235Z AUTO 00000KT 10SM CLR 03/M02 A3027 RMK AO2 T00351023
KTYQ 
18nm NE 
290235Z AUTO 00000KT 10SM CLR 02/M01 A3026 RMK AO2 T00161010
KCFJ 
20nm NW 
290235Z AUTO 00000KT 10SM CLR 00/M03 A3027 RMK AO2 T00001035
TAF
KIND 
13nm SE 
282031Z 2821/2924 33012G17KT P6SM SCT050 FM290000 21005KT P6SM SKC FM291500 24014G21KT P6SM SCT050 BKN120
NOTAMs
Click for the latest NOTAMs
NOTAMs are issued by the DoD/FAA and will open in a separate window not controlled by AirNav.

 

 
 

Would you like to see your business listed on this page?

 If your business provides an interesting product or service to pilots, flight crews, aircraft, or users of the JR's Airport, you should consider listing it here.  To start the listing process, click on the button below
 
Add a business
 

Other Pages about JR's Airport

Update a link
 
Copyright © AirNav, LLC. All rights reserved. Privacy Policy  Contact